Time;durP1;ratioP1;P1;durP2;ratioP2;P2;SDS_P1;SDS_P2;PMS_P1;PMS_P2;Temp;Humidity;BMP_temperature;BMP_pressure;BME280_temperature;BME280_humidity;BME280_pressure;Samples;Min_cycle;Max_cycle;Signal;HPM_P1;HPM_P2
2022/10/22 00:00:44;;;;;;;11.12;7.03;;;;;;;12.91;59.42;99877.84;4470284;32;34974;-76
2022/10/22 00:03:11;;;;;;;10.63;6.78;;;;;;;12.88;59.28;99872.94;4470537;32;34621;-76
2022/10/22 00:05:39;;;;;;;10.38;7.00;;;;;;;12.69;59.38;99875.22;4469417;32;33282;-76
2022/10/22 00:08:06;;;;;;;14.87;8.48;;;;;;;12.49;59.87;99878.59;4468618;32;34566;-76
2022/10/22 00:10:33;;;;;;;10.48;7.32;;;;;;;12.08;61.18;99867.31;4470435;32;34333;-75
2022/10/22 00:13:01;;;;;;;11.52;7.57;;;;;;;12.44;59.90;99875.81;4456056;32;33496;-76
2022/10/22 00:15:28;;;;;;;14.32;8.45;;;;;;;12.99;59.16;99869.19;4470241;32;34157;-76
2022/10/22 00:17:56;;;;;;;13.40;7.82;;;;;;;12.62;59.94;99874.62;4470338;32;33487;-76
2022/10/22 00:20:23;;;;;;;10.45;7.37;;;;;;;13.04;58.53;99874.66;4469865;32;33765;-75
2022/10/22 00:22:50;;;;;;;11.68;6.90;;;;;;;12.90;58.65;99882.47;4470444;32;34035;-76
2022/10/22 00:25:23;;;;;;;12.37;7.60;;;;;;;12.87;59.06;99869.41;4470144;32;33321;-76
2022/10/22 00:27:50;;;;;;;10.65;6.85;;;;;;;12.75;59.41;99866.03;4470287;32;33860;-75
2022/10/22 00:30:18;;;;;;;11.73;6.70;;;;;;;12.86;59.29;99862.28;4470189;32;33743;-76
2022/10/22 00:32:45;;;;;;;12.00;6.80;;;;;;;13.15;58.51;99872.84;4470165;32;34065;-74
2022/10/22 00:35:13;;;;;;;9.93;5.97;;;;;;;12.62;60.13;99866.47;4470016;32;34350;-76
2022/10/22 00:37:40;;;;;;;8.93;6.00;;;;;;;12.64;59.94;99858.88;4470242;32;34764;-76
2022/10/22 00:40:08;;;;;;;13.43;6.40;;;;;;;12.93;59.11;99871.06;4456408;32;34251;-77
2022/10/22 00:42:36;;;;;;;13.45;7.05;;;;;;;13.07;58.59;99865.19;4470503;32;33904;-75
2022/10/22 00:45:10;;;;;;;10.27;6.00;;;;;;;12.78;58.85;99851.88;4470214;32;34025;-76
2022/10/22 00:47:50;;;;;;;9.70;6.15;;;;;;;12.85;58.95;99851.66;4470019;32;34798;-76
2022/10/22 00:50:22;;;;;;;11.85;6.87;;;;;;;13.10;58.46;99853.75;4455570;32;33985;-76
2022/10/22 00:53:10;;;;;;;11.52;7.03;;;;;;;13.07;58.06;99854.28;4456266;32;34076;-76
2022/10/22 00:55:38;;;;;;;14.10;7.55;;;;;;;12.97;58.83;99849.56;4470121;32;33458;-76
2022/10/22 00:58:05;;;;;;;10.73;7.07;;;;;;;13.12;57.76;99849.66;4469720;32;34015;-76
2022/10/22 01:00:33;;;;;;;14.82;7.65;;;;;;;12.69;58.93;99848.81;4454460;32;34154;-76
2022/10/22 01:03:00;;;;;;;11.32;6.97;;;;;;;12.47;59.51;99846.19;4454564;32;33785;-76
2022/10/22 01:05:42;;;;;;;13.32;7.18;;;;;;;12.75;59.35;99857.88;4454520;32;34369;-76
2022/10/22 01:08:33;;;;;;;10.30;7.10;;;;;;;12.75;59.52;99857.06;4439964;32;34706;-76
2022/10/22 01:11:28;;;;;;;12.30;7.50;;;;;;;12.46;60.77;99850.00;4454412;32;34105;-76
2022/10/22 01:14:33;;;;;;;11.98;7.30;;;;;;;12.69;60.34;99859.72;4440497;32;33770;-76
2022/10/22 01:17:08;;;;;;;13.05;7.37;;;;;;;12.89;59.24;99847.34;4454592;32;33502;-76
2022/10/22 01:19:45;;;;;;;;;;;;;;;12.71;59.67;99852.09;4440682;32;34905;-74
2022/10/22 01:22:29;;;;;;;10.75;7.25;;;;;;;13.03;58.81;99850.44;4454475;32;35401;-76
2022/10/22 01:25:18;;;;;;;13.27;7.95;;;;;;;13.09;58.59;99852.94;4447749;32;34124;-76
2022/10/22 01:28:07;;;;;;;13.00;7.78;;;;;;;12.91;58.84;99851.47;4469984;32;34422;-75
2022/10/22 01:30:35;;;;;;;15.45;8.98;;;;;;;12.95;58.57;99849.00;4469991;32;33703;-76
2022/10/22 01:33:06;;;;;;;14.43;8.82;;;;;;;12.85;58.69;99857.94;4455301;32;34007;-75
2022/10/22 01:35:36;;;;;;;14.80;9.52;;;;;;;12.76;59.12;99850.50;4440148;32;33680;-76
2022/10/22 01:38:08;;;;;;;14.93;9.07;;;;;;;12.71;59.37;99857.56;4441221;32;34156;-75
2022/10/22 01:40:36;;;;;;;16.15;9.02;;;;;;;12.65;59.70;99857.78;4440064;32;34823;-75
2022/10/22 01:43:07;;;;;;;15.65;9.15;;;;;;;12.93;58.30;99852.00;4454222;32;34991;-74
2022/10/22 01:45:43;;;;;;;14.32;8.40;;;;;;;12.77;58.88;99844.00;4454074;32;34779;-75
2022/10/22 01:48:35;;;;;;;15.98;9.00;;;;;;;12.80;59.11;99857.06;4440012;32;33172;-76
2022/10/22 01:51:10;;;;;;;13.32;9.02;;;;;;;12.60;59.46;99847.66;4453905;32;33915;-72
2022/10/22 01:53:47;;;;;;;13.98;8.60;;;;;;;12.61;60.02;99845.75;4460826;32;34287;-75
2022/10/22 01:56:29;;;;;;;12.37;7.57;;;;;;;12.05;61.05;99838.75;4455622;32;33988;-76
2022/10/22 01:59:06;;;;;;;11.30;6.80;;;;;;;12.32;60.69;99841.44;4469537;32;33521;-76
2022/10/22 02:01:52;;;;;;;11.82;7.00;;;;;;;12.52;59.79;99854.41;4444053;32;34728;-76
2022/10/22 02:04:37;;;;;;;10.23;6.65;;;;;;;12.38;58.85;99845.03;4453948;32;35040;-75
2022/10/22 02:07:07;;;;;;;10.97;6.93;;;;;;;11.82;60.73;99836.28;4439925;32;34785;-76
2022/10/22 02:09:36;;;;;;;9.82;5.62;;;;;;;12.32;60.15;99838.72;4438947;32;34142;-76
2022/10/22 02:12:05;;;;;;;9.60;6.05;;;;;;;11.95;60.17;99819.59;4454190;32;34028;-76
2022/10/22 02:14:36;;;;;;;8.52;6.22;;;;;;;12.01;59.97;99817.75;4439952;32;34086;-76
2022/10/22 02:17:07;;;;;;;9.65;6.07;;;;;;;11.58;60.33;99822.97;4440122;32;34173;-76
2022/10/22 02:19:44;;;;;;;8.10;5.82;;;;;;;11.79;60.11;99812.31;4439898;32;33135;-76
2022/10/22 02:22:12;;;;;;;8.65;5.78;;;;;;;11.90;59.17;99828.53;4453834;32;33876;-76
2022/10/22 02:24:39;;;;;;;8.93;5.57;;;;;;;12.05;59.11;99835.19;4439788;32;34938;-76
2022/10/22 02:27:30;;;;;;;7.32;5.20;;;;;;;12.03;59.10;99824.59;4439683;32;33674;-76
2022/10/22 02:30:10;;;;;;;8.40;5.50;;;;;;;11.71;60.22;99819.03;4440072;32;33518;-76
2022/10/22 02:32:38;;;;;;;8.30;5.78;;;;;;;11.74;59.90;99823.94;4439815;32;34775;-75
2022/10/22 02:35:07;;;;;;;8.93;5.45;;;;;;;11.36;61.44;99824.84;4453683;32;34955;-76
2022/10/22 02:37:34;;;;;;;9.35;5.75;;;;;;;12.03;60.13;99834.63;4443340;32;34456;-76
2022/10/22 02:40:02;;;;;;;9.80;5.85;;;;;;;11.86;60.44;99831.97;4455005;32;34215;-75
2022/10/22 02:42:30;;;;;;;10.68;6.18;;;;;;;11.81;60.86;99834.63;4469150;32;34168;-75
2022/10/22 02:44:57;;;;;;;7.95;5.55;;;;;;;12.08;59.94;99838.22;4468895;32;34854;-76
2022/10/22 02:47:25;;;;;;;9.95;5.40;;;;;;;11.97;60.20;99843.81;4455391;32;34551;-76
2022/10/22 02:49:52;;;;;;;7.90;5.32;;;;;;;12.28;59.76;99851.19;4453384;32;33589;-76
2022/10/22 02:52:19;;;;;;;10.07;5.57;;;;;;;12.07;60.46;99857.50;4453057;32;34944;-75
2022/10/22 02:54:47;;;;;;;10.27;5.40;;;;;;;11.44;61.99;99855.09;4453645;32;34967;-76
2022/10/22 02:57:14;;;;;;;8.30;5.68;;;;;;;11.82;60.61;99852.59;4453137;32;34281;-76
2022/10/22 02:59:42;;;;;;;9.23;5.70;;;;;;;12.11;59.75;99847.75;4453098;32;33240;-76
2022/10/22 03:02:09;;;;;;;7.75;5.28;;;;;;;11.57;61.29;99844.94;4453562;32;34497;-75
2022/10/22 03:04:37;;;;;;;7.72;5.10;;;;;;;11.42;61.66;99846.38;4453286;32;34174;-75
2022/10/22 03:07:04;;;;;;;8.30;5.12;;;;;;;11.69;60.94;99842.94;4453508;32;34057;-75
2022/10/22 03:09:32;;;;;;;9.20;5.87;;;;;;;11.29;62.13;99841.31;4453254;32;33672;-76
2022/10/22 03:11:59;;;;;;;9.35;5.15;;;;;;;11.38;61.92;99844.44;4453520;32;34629;-77
2022/10/22 03:14:27;;;;;;;11.00;6.03;;;;;;;11.23;62.47;99843.16;4453082;32;33920;-76
2022/10/22 03:16:54;;;;;;;11.05;5.20;;;;;;;11.25;62.38;99832.03;4453270;32;33181;-76
2022/10/22 03:19:22;;;;;;;10.98;6.20;;;;;;;11.31;61.94;99830.22;4453508;32;33505;-76
2022/10/22 03:21:59;;;;;;;11.05;5.90;;;;;;;11.19;62.14;99828.44;4467779;32;33919;-76
2022/10/22 03:24:34;;;;;;;8.38;5.60;;;;;;;11.52;61.39;99823.16;4456744;32;34005;-76
2022/10/22 03:27:01;;;;;;;9.95;6.35;;;;;;;11.51;61.34;99822.31;4470907;32;33539;-75
2022/10/22 03:29:30;;;;;;;8.63;5.78;;;;;;;11.35;61.76;99809.63;4470609;32;34202;-77
2022/10/22 03:31:58;;;;;;;10.65;6.40;;;;;;;11.54;61.30;99810.97;4456478;32;34075;-75
2022/10/22 03:34:25;;;;;;;9.60;6.03;;;;;;;11.39;61.92;99818.91;4470910;32;34138;-76
2022/10/22 03:36:53;;;;;;;10.38;6.15;;;;;;;11.02;63.29;99814.91;4455011;32;33442;-76
2022/10/22 03:39:21;;;;;;;9.73;6.12;;;;;;;11.56;61.60;99813.44;4455336;32;33039;-73
2022/10/22 03:41:50;;;;;;;8.60;6.18;;;;;;;11.73;61.06;99816.88;4441043;32;34786;-76
2022/10/22 03:44:17;;;;;;;10.82;5.97;;;;;;;11.64;61.79;99821.94;4455095;32;34320;-73
2022/10/22 03:46:45;;;;;;;9.75;6.28;;;;;;;11.76;61.23;99819.09;4457091;32;33571;-74
2022/10/22 03:49:12;;;;;;;8.55;5.68;;;;;;;11.01;63.16;99804.28;4470487;32;34243;-74
2022/10/22 03:51:42;;;;;;;10.00;6.32;;;;;;;11.03;63.35;99802.16;4439571;32;34041;-73
2022/10/22 03:54:09;;;;;;;8.93;6.03;;;;;;;10.81;64.08;99797.50;4439480;32;33989;-74
2022/10/22 03:56:36;;;;;;;8.50;5.47;;;;;;;10.59;64.68;99796.63;4446663;32;34587;-76
2022/10/22 03:59:04;;;;;;;10.18;6.00;;;;;;;10.77;64.09;99798.25;4454720;32;33664;-76
2022/10/22 04:01:31;;;;;;;10.27;6.45;;;;;;;11.12;63.07;99795.19;4454931;32;34693;-72
2022/10/22 04:03:59;;;;;;;9.73;6.40;;;;;;;11.06;63.03;99810.63;4454900;32;34998;-75
2022/10/22 04:06:28;;;;;;;9.60;6.10;;;;;;;10.85;63.62;99819.53;4440982;32;33950;-73
2022/10/22 04:08:56;;;;;;;10.05;6.50;;;;;;;10.65;64.41;99820.88;4441423;32;33421;-73
2022/10/22 04:11:23;;;;;;;10.93;6.18;;;;;;;10.74;64.03;99825.91;4441042;32;33849;-73
2022/10/22 04:13:51;;;;;;;9.55;6.57;;;;;;;9.17;69.89;99815.38;4454809;32;34978;-73
2022/10/22 04:16:20;;;;;;;9.65;6.28;;;;;;;9.82;67.70;99814.25;4454615;32;34634;-74
2022/10/22 04:18:49;;;;;;;9.35;6.60;;;;;;;9.71;68.33;99817.84;4440986;32;34249;-74
2022/10/22 04:21:18;;;;;;;12.18;7.28;;;;;;;10.27;66.27;99819.66;4440874;32;34707;-73
2022/10/22 04:23:46;;;;;;;11.30;7.25;;;;;;;10.18;66.37;99818.44;4441633;32;33723;-73
2022/10/22 04:26:15;;;;;;;11.38;6.85;;;;;;;10.29;65.88;99824.88;4470234;32;34023;-73
2022/10/22 04:28:42;;;;;;;11.30;7.20;;;;;;;10.34;65.79;99818.72;4470284;32;34161;-73
2022/10/22 04:31:14;;;;;;;11.68;7.60;;;;;;;10.53;65.00;99822.84;4469756;32;33901;-76
2022/10/22 04:33:42;;;;;;;10.48;6.97;;;;;;;10.42;65.19;99805.56;4470151;32;34990;-73
2022/10/22 04:36:11;;;;;;;10.77;7.80;;;;;;;10.40;65.65;99812.31;4470380;32;34714;-74
2022/10/22 04:38:39;;;;;;;12.75;7.53;;;;;;;10.28;66.04;99809.66;4458190;32;34294;-72
2022/10/22 04:41:13;;;;;;;10.07;7.10;;;;;;;10.48;65.38;99811.09;4454788;32;34856;-73
2022/10/22 04:43:40;;;;;;;11.35;7.80;;;;;;;10.66;64.86;99816.25;4440660;32;34821;-73
2022/10/22 04:46:10;;;;;;;9.63;6.70;;;;;;;10.82;64.17;99814.59;4440713;32;34106;-76
2022/10/22 04:48:38;;;;;;;10.32;7.20;;;;;;;10.90;63.75;99816.06;4439408;32;33502;-71
2022/10/22 04:51:07;;;;;;;11.73;7.85;;;;;;;10.38;65.44;99809.84;4452316;32;33972;-72
2022/10/22 04:53:35;;;;;;;11.05;7.53;;;;;;;10.42;65.36;99810.19;4440566;32;33759;-71
2022/10/22 04:56:10;;;;;;;11.85;8.00;;;;;;;10.61;64.61;99800.72;4440586;32;33854;-71
2022/10/22 04:58:38;;;;;;;10.63;7.05;;;;;;;10.42;65.26;99794.72;4454228;32;33342;-72
2022/10/22 05:01:20;;;;;;;13.95;7.70;;;;;;;10.39;65.37;99810.69;4454433;32;34746;-72
2022/10/22 05:03:49;;;;;;;10.93;7.50;;;;;;;10.53;64.87;99816.59;4440608;32;33641;-71
2022/10/22 05:06:19;;;;;;;12.50;8.13;;;;;;;10.42;65.15;99811.00;4454141;32;33912;-73
2022/10/22 05:08:47;;;;;;;13.05;7.75;;;;;;;10.43;65.22;99812.66;4454007;32;33657;-71
2022/10/22 05:11:16;;;;;;;13.95;8.07;;;;;;;10.75;64.06;99809.34;4453794;32;34731;-73
2022/10/22 05:13:43;;;;;;;15.20;8.32;;;;;;;10.38;65.35;99807.12;4454339;32;34997;-72
2022/10/22 05:16:12;;;;;;;12.25;8.00;;;;;;;10.36;65.53;99800.31;4453837;32;33778;-72
2022/10/22 05:18:41;;;;;;;13.30;8.60;;;;;;;10.19;66.03;99803.78;4439461;32;33356;-71
2022/10/22 05:21:11;;;;;;;13.02;8.70;;;;;;;10.30;65.34;99807.53;4454103;32;34736;-71
2022/10/22 05:23:38;;;;;;;14.18;8.48;;;;;;;10.12;65.89;99810.47;4454170;32;34678;-74
2022/10/22 05:26:08;;;;;;;12.00;7.93;;;;;;;10.13;66.09;99818.34;4453827;32;34713;-72
2022/10/22 05:28:36;;;;;;;15.65;8.80;;;;;;;10.21;65.78;99812.50;4453714;32;34376;-72
2022/10/22 05:31:05;;;;;;;12.52;7.82;;;;;;;10.71;64.56;99820.94;4453856;32;34696;-72
2022/10/22 05:33:33;;;;;;;14.55;8.80;;;;;;;9.89;66.97;99814.91;4453439;32;35073;-75
2022/10/22 05:36:02;;;;;;;17.23;9.82;;;;;;;10.17;66.33;99822.22;4454149;32;34244;-72
2022/10/22 05:38:31;;;;;;;25.27;13.38;;;;;;;10.48;65.17;99821.97;4465132;32;34767;-71
2022/10/22 05:41:07;;;;;;;32.63;16.17;;;;;;;10.34;65.55;99818.72;4469568;32;33988;-72
2022/10/22 05:43:35;;;;;;;29.37;14.32;;;;;;;10.57;65.16;99802.28;4454573;32;34112;-73
2022/10/22 05:46:05;;;;;;;30.12;16.00;;;;;;;10.40;65.60;99801.47;4467159;32;34345;-74
2022/10/22 05:48:32;;;;;;;27.90;14.52;;;;;;;10.27;66.54;99803.41;4454208;32;33337;-79
2022/10/22 05:51:04;;;;;;;26.85;14.52;;;;;;;10.20;66.63;99812.78;4454153;32;34130;-74
2022/10/22 05:53:34;;;;;;;26.48;14.87;;;;;;;10.56;65.87;99818.81;4451761;32;35434;-78
2022/10/22 05:56:03;;;;;;;27.83;14.77;;;;;;;10.74;65.14;99832.13;4453550;32;34618;-75
2022/10/22 05:58:31;;;;;;;27.75;16.00;;;;;;;10.59;65.75;99824.56;4439574;32;33389;-75
2022/10/22 06:01:15;;;;;;;27.08;16.02;;;;;;;10.39;66.75;99826.97;4439131;32;34720;-74
2022/10/22 06:03:43;;;;;;;29.15;16.65;;;;;;;10.43;66.82;99823.50;4452307;32;35105;-73
2022/10/22 06:06:26;;;;;;;28.90;16.33;;;;;;;10.76;65.61;99830.00;4453385;32;33583;-79
2022/10/22 06:08:54;;;;;;;29.67;16.52;;;;;;;10.97;65.04;99852.84;4453407;32;33476;-73
2022/10/22 06:11:22;;;;;;;26.92;15.23;;;;;;;10.69;65.77;99848.34;4439403;32;34693;-72
2022/10/22 06:13:50;;;;;;;27.23;15.43;;;;;;;10.71;66.10;99850.78;4453663;32;35018;-74
2022/10/22 06:16:17;;;;;;;28.40;15.82;;;;;;;10.92;65.59;99858.19;4460046;32;33774;-72
2022/10/22 06:18:45;;;;;;;26.90;15.68;;;;;;;10.77;66.56;99853.34;4468168;32;34313;-75
2022/10/22 06:21:14;;;;;;;26.75;14.93;;;;;;;10.86;66.26;99854.59;4467860;32;34811;-73
2022/10/22 06:23:42;;;;;;;26.35;15.80;;;;;;;10.87;66.46;99850.78;4453951;32;34254;-70
2022/10/22 06:26:10;;;;;;;26.20;16.12;;;;;;;10.79;66.06;99844.97;4467320;32;34262;-75
2022/10/22 06:28:37;;;;;;;33.30;19.48;;;;;;;10.53;67.23;99844.53;4469173;32;33769;-78
2022/10/22 06:31:05;;;;;;;31.85;18.83;;;;;;;10.37;67.67;99845.38;4467132;32;34162;-79
2022/10/22 06:33:36;;;;;;;30.65;17.58;;;;;;;10.71;66.80;99846.19;4468412;32;34101;-73
2022/10/22 06:36:16;;;;;;;26.45;16.40;;;;;;;11.37;64.14;99843.63;4467810;32;33955;-74
2022/10/22 06:38:44;;;;;;;26.98;16.12;;;;;;;11.99;62.48;99844.38;4469370;32;33546;-76
2022/10/22 06:41:13;;;;;;;29.00;17.52;;;;;;;12.17;62.43;99849.47;4469386;32;33868;-72
2022/10/22 06:43:48;;;;;;;27.30;15.85;;;;;;;12.68;61.65;99865.44;4468953;32;34202;-75
2022/10/22 06:46:18;;;;;;;33.30;18.37;;;;;;;12.93;61.20;99879.22;4439898;32;33605;-84
2022/10/22 06:48:55;;;;;;;30.73;18.83;;;;;;;12.93;60.44;99878.41;4453357;32;34235;-72
2022/10/22 06:51:23;;;;;;;24.15;16.85;;;;;;;13.52;58.02;99866.56;4445860;32;34052;-70
2022/10/22 06:53:52;;;;;;;26.20;16.98;;;;;;;13.32;58.41;99857.16;4468476;32;33982;-76
2022/10/22 06:56:22;;;;;;;29.98;17.20;;;;;;;13.68;57.19;99864.72;4470649;32;33702;-75
2022/10/22 06:58:51;;;;;;;26.45;16.98;;;;;;;13.45;59.40;99861.31;4455730;32;33539;-74
2022/10/22 07:01:20;;;;;;;25.65;16.00;;;;;;;13.41;58.43;99860.25;4470257;32;33721;-79
2022/10/22 07:03:52;;;;;;;24.77;15.40;;;;;;;13.93;57.45;99870.25;4469215;32;35011;-75
2022/10/22 07:06:21;;;;;;;20.30;13.20;;;;;;;14.15;57.45;99871.97;4469856;32;34136;-75
2022/10/22 07:08:48;;;;;;;18.55;12.25;;;;;;;14.28;56.18;99865.97;4455694;32;34016;-73
2022/10/22 07:11:17;;;;;;;17.15;11.38;;;;;;;13.40;58.63;99852.31;4458491;32;33876;-75
2022/10/22 07:13:45;;;;;;;18.05;10.55;;;;;;;14.11;54.68;99854.47;4464896;32;34200;-75
2022/10/22 07:16:13;;;;;;;18.27;10.98;;;;;;;13.76;54.80;99856.03;4468882;32;33925;-69
2022/10/22 07:18:41;;;;;;;14.87;8.20;;;;;;;13.31;56.98;99849.28;4455743;32;34832;-74
2022/10/22 07:21:10;;;;;;;15.27;8.27;;;;;;;13.45;54.46;99852.34;4457522;32;34360;-73
2022/10/22 07:23:37;;;;;;;15.80;8.65;;;;;;;13.67;52.67;99844.81;4455350;32;35204;-73
2022/10/22 07:26:09;;;;;;;10.77;7.37;;;;;;;13.67;52.18;99849.41;4440324;32;34033;-71
2022/10/22 07:28:38;;;;;;;13.45;7.85;;;;;;;13.36;53.02;99852.00;4440668;32;33467;-72
2022/10/22 07:31:07;;;;;;;12.70;6.97;;;;;;;13.04;54.95;99857.50;4453677;32;33870;-75
2022/10/22 07:33:35;;;;;;;10.70;6.55;;;;;;;13.61;52.84;99856.78;4440076;32;34211;-75
2022/10/22 07:36:05;;;;;;;9.82;6.93;;;;;;;13.57;53.77;99857.59;4453274;32;33597;-75
2022/10/22 07:38:33;;;;;;;12.95;6.40;;;;;;;13.44;53.26;99859.69;4437705;32;34386;-75
2022/10/22 07:41:01;;;;;;;11.10;6.97;;;;;;;13.49;53.44;99853.44;4437813;32;34029;-71
2022/10/22 07:43:29;;;;;;;12.05;6.57;;;;;;;14.22;51.03;99853.41;4445511;32;34189;-72
2022/10/22 07:45:56;;;;;;;11.00;6.87;;;;;;;14.07;51.15;99837.00;4454062;32;34577;-75
2022/10/22 07:48:23;;;;;;;10.73;6.50;;;;;;;14.18;50.92;99838.66;4453386;32;33452;-75
2022/10/22 07:50:51;;;;;;;11.98;6.43;;;;;;;14.42;50.04;99852.59;4450844;32;33970;-71
2022/10/22 07:53:20;;;;;;;10.90;6.90;;;;;;;14.81;49.06;99852.09;4451606;32;33972;-78
2022/10/22 07:55:48;;;;;;;11.18;6.65;;;;;;;14.84;48.68;99848.81;4453199;32;34634;-72
2022/10/22 07:58:17;;;;;;;9.75;6.75;;;;;;;14.51;49.81;99869.25;4450410;32;34255;-71
2022/10/22 08:00:45;;;;;;;12.07;7.12;;;;;;;15.03;49.23;99859.16;4453305;32;34023;-71
2022/10/22 08:03:14;;;;;;;13.57;6.87;;;;;;;15.46;47.59;99854.16;4454092;32;34342;-72
2022/10/22 08:05:42;;;;;;;11.68;6.75;;;;;;;15.01;49.02;99853.16;4453175;32;34309;-71
2022/10/22 08:08:11;;;;;;;11.35;6.05;;;;;;;15.31;48.59;99858.59;4453432;32;34287;-73
2022/10/22 08:10:39;;;;;;;9.85;6.50;;;;;;;15.23;48.97;99856.41;4453613;32;34054;-73
2022/10/22 08:13:08;;;;;;;11.60;7.12;;;;;;;15.23;49.34;99859.16;4453711;32;33844;-75
2022/10/22 08:15:35;;;;;;;11.43;7.07;;;;;;;15.22;50.02;99864.87;4454137;32;34550;-74
2022/10/22 08:18:03;;;;;;;12.07;7.28;;;;;;;15.21;50.82;99849.59;4453757;32;33536;-73
2022/10/22 08:20:30;;;;;;;11.88;7.22;;;;;;;15.88;48.36;99845.53;4453374;32;33702;-73
2022/10/22 08:22:58;;;;;;;10.02;6.53;;;;;;;15.61;50.86;99845.88;4456031;32;34209;-73
2022/10/22 08:25:26;;;;;;;9.55;6.70;;;;;;;15.84;50.50;99854.59;4469214;32;34041;-71
2022/10/22 08:27:53;;;;;;;12.10;7.93;;;;;;;16.28;48.57;99845.56;4467396;32;33063;-73
2022/10/22 08:30:21;;;;;;;10.77;6.85;;;;;;;16.81;48.24;99852.03;4454086;32;33861;-73
2022/10/22 08:32:48;;;;;;;10.38;6.75;;;;;;;16.83;47.60;99856.41;4453797;32;34218;-72
2022/10/22 08:35:20;;;;;;;10.25;6.80;;;;;;;17.20;46.15;99855.78;4453451;32;33238;-73
2022/10/22 08:37:47;;;;;;;12.45;7.28;;;;;;;17.16;45.92;99858.25;4453942;32;34315;-71
2022/10/22 08:40:31;;;;;;;12.43;7.18;;;;;;;16.62;47.54;99857.34;4453338;32;33925;-72
2022/10/22 08:43:20;;;;;;;13.88;7.50;;;;;;;16.26;49.59;99850.50;4446130;32;34222;-70
2022/10/22 08:46:09;;;;;;;10.77;7.15;;;;;;;16.29;48.08;99852.69;4439347;32;34653;-73
2022/10/22 08:48:54;;;;;;;11.27;6.95;;;;;;;16.17;48.33;99867.53;4453582;32;34399;-76
2022/10/22 08:51:25;;;;;;;12.88;6.75;;;;;;;15.98;48.90;99861.91;4455736;32;34810;-71
2022/10/22 08:54:09;;;;;;;11.57;7.90;;;;;;;16.32;48.45;99861.13;4445227;32;34168;-75
2022/10/22 08:56:37;;;;;;;14.93;7.78;;;;;;;16.40;48.36;99866.00;4450574;32;35021;-74
2022/10/22 08:59:11;;;;;;;12.77;7.82;;;;;;;16.46;48.98;99861.31;4468399;32;33776;-76
2022/10/22 09:01:42;;;;;;;12.43;7.97;;;;;;;15.88;49.08;99848.28;4453154;32;33621;-75
2022/10/22 09:04:36;;;;;;;9.52;6.90;;;;;;;16.44;48.80;99855.31;4417178;32;33736;-77
2022/10/22 09:07:04;;;;;;;16.00;8.65;;;;;;;16.38;48.07;99868.22;4437692;32;34950;-75
2022/10/22 09:09:35;;;;;;;15.60;8.73;;;;;;;16.31;48.07;99867.72;4438047;32;33611;-74
2022/10/22 09:12:03;;;;;;;11.98;7.53;;;;;;;16.44;47.61;99869.00;4437561;32;33268;-70
2022/10/22 09:14:31;;;;;;;14.10;7.62;;;;;;;16.53;47.49;99861.81;4465460;32;34316;-75
2022/10/22 09:17:07;;;;;;;13.55;7.87;;;;;;;16.87;46.88;99865.66;4454657;32;34651;-76
2022/10/22 09:20:09;;;;;;;16.60;8.10;;;;;;;16.94;46.19;99857.94;4468815;32;34166;-75
2022/10/22 09:22:53;;;;;;;12.88;8.10;;;;;;;16.79;46.35;99851.47;4468640;32;34863;-76
2022/10/22 09:25:23;;;;;;;18.42;8.65;;;;;;;16.93;46.38;99853.56;4468838;32;34180;-74
2022/10/22 09:27:57;;;;;;;15.45;8.52;;;;;;;16.81;46.86;99860.25;4453774;32;33912;-73
2022/10/22 09:30:45;;;;;;;16.67;9.02;;;;;;;16.71;47.18;99867.69;4467945;32;33564;-73
2022/10/22 09:33:27;;;;;;;12.27;8.30;;;;;;;16.47;48.44;99868.44;4468755;32;34632;-76
2022/10/22 09:35:57;;;;;;;12.15;8.13;;;;;;;16.93;47.68;99875.47;4468615;32;34358;-73
2022/10/22 09:38:30;;;;;;;14.52;9.27;;;;;;;16.98;46.48;99883.69;4468810;32;33999;-73
2022/10/22 09:41:02;;;;;;;17.25;9.30;;;;;;;17.20;45.79;99873.03;4468618;32;33521;-76
2022/10/22 09:43:31;;;;;;;13.95;8.68;;;;;;;17.05;46.16;99873.19;4468935;32;34032;-73
2022/10/22 09:46:01;;;;;;;12.07;8.15;;;;;;;16.65;47.46;99883.38;4468407;32;35149;-75
2022/10/22 09:48:33;;;;;;;15.07;8.88;;;;;;;16.44;48.32;99879.97;4468748;32;34066;-76
2022/10/22 09:51:18;;;;;;;15.68;9.15;;;;;;;16.51;48.27;99865.94;4454089;32;33339;-75
2022/10/22 09:53:55;;;;;;;14.10;8.68;;;;;;;16.93;47.39;99865.38;4468687;32;34769;-77
2022/10/22 09:56:28;;;;;;;11.70;8.07;;;;;;;16.77;48.78;99869.28;4468108;32;33978;-75
2022/10/22 09:58:56;;;;;;;14.32;8.95;;;;;;;16.68;48.26;99860.88;4454352;32;34740;-75
2022/10/22 10:01:27;;;;;;;14.00;9.20;;;;;;;16.81;48.53;99868.47;4466793;32;33315;-75
2022/10/22 10:04:02;;;;;;;13.52;8.93;;;;;;;16.69;48.56;99865.25;4468358;32;34980;-74
2022/10/22 10:06:38;;;;;;;14.70;8.80;;;;;;;16.70;48.71;99860.59;4468476;32;34045;-73
2022/10/22 10:09:14;;;;;;;16.98;9.48;;;;;;;16.62;48.81;99867.50;4468357;32;34717;-75
2022/10/22 10:11:42;;;;;;;14.00;9.25;;;;;;;16.98;48.33;99862.56;4468238;32;34776;-73
2022/10/22 10:14:12;;;;;;;14.90;9.23;;;;;;;17.07;47.88;99859.19;4468490;32;34616;-73
2022/10/22 10:16:43;;;;;;;12.63;8.68;;;;;;;16.60;48.91;99842.31;4468560;32;34244;-73
2022/10/22 10:19:19;;;;;;;15.70;9.32;;;;;;;16.15;50.44;99847.81;4468461;32;34611;-73
2022/10/22 10:22:20;;;;;;;16.25;8.98;;;;;;;16.16;50.26;99841.25;4468014;32;33620;-72
2022/10/22 10:25:24;;;;;;;14.65;9.10;;;;;;;16.64;49.83;99856.25;4436533;32;33758;-81
2022/10/22 10:28:35;;;;;;;12.73;8.95;;;;;;;16.14;50.25;99865.38;4435246;32;33769;-73
2022/10/22 10:31:29;;;;;;;14.15;9.68;;;;;;;16.32;50.06;99852.91;4374503;32;33799;-71
2022/10/22 10:34:11;;;;;;;13.55;9.35;;;;;;;16.03;50.24;99847.38;4438316;32;34143;-72
2022/10/22 10:36:54;;;;;;;16.52;9.57;;;;;;;16.27;50.14;99849.41;4452091;32;33862;-72
2022/10/22 10:39:47;;;;;;;16.40;8.88;;;;;;;16.45;50.59;99845.97;4451057;32;34645;-74
2022/10/22 10:42:20;;;;;;;14.85;9.57;;;;;;;16.78;50.07;99855.31;4438151;32;35014;-74
2022/10/22 10:45:17;;;;;;;13.77;9.50;;;;;;;16.64;50.26;99853.53;4451616;32;33659;-73
2022/10/22 10:48:07;;;;;;;17.55;10.52;;;;;;;16.74;51.94;99859.72;4445766;32;34549;-73
2022/10/22 10:51:02;;;;;;;13.73;9.75;;;;;;;17.20;50.89;99874.97;4438128;32;33970;-72
2022/10/22 10:53:42;;;;;;;;;;;;;;;17.56;49.31;99874.59;4422776;32;34774;-73
2022/10/22 10:56:28;;;;;;;17.05;9.45;;;;;;;17.78;50.18;99872.09;4422381;32;33008;-72
2022/10/22 10:59:02;;;;;;;18.98;10.80;;;;;;;17.66;49.25;99877.19;4436014;32;33924;-74
2022/10/22 11:02:03;;;;;;;14.43;9.68;;;;;;;17.66;49.25;99876.38;4436448;32;34012;-72
2022/10/22 11:04:46;;;;;;;17.25;9.50;;;;;;;17.93;49.55;99876.63;4402672;32;33527;-78
2022/10/22 11:07:16;;;;;;;14.87;9.15;;;;;;;17.85;49.69;99874.53;4466504;32;34004;-78
2022/10/22 11:10:08;;;;;;;16.02;9.38;;;;;;;17.89;49.21;99867.34;4454577;32;34149;-78
2022/10/22 11:12:41;;;;;;;14.32;9.05;;;;;;;17.81;48.92;99866.00;4449593;32;35080;-77
2022/10/22 11:15:24;;;;;;;15.57;9.82;;;;;;;17.41;51.20;99864.59;4452481;32;34644;-77
2022/10/22 11:17:54;;;;;;;15.55;9.82;;;;;;;17.85;50.55;99860.00;4452608;32;34489;-76
2022/10/22 11:20:33;;;;;;;14.70;9.40;;;;;;;17.96;51.08;99856.00;4441762;32;34806;-76
2022/10/22 11:23:06;;;;;;;14.87;9.40;;;;;;;17.83;48.59;99852.03;4437421;32;33881;-76
2022/10/22 11:25:48;;;;;;;17.58;9.38;;;;;;;17.59;49.56;99841.06;4438399;32;33799;-75
2022/10/22 11:28:25;;;;;;;13.55;9.85;;;;;;;17.83;49.58;99850.09;4451156;32;34280;-75
2022/10/22 11:30:58;;;;;;;16.40;9.82;;;;;;;18.11;47.43;99843.97;4439631;32;33704;-76
2022/10/22 11:33:32;;;;;;;14.63;9.73;;;;;;;17.45;50.08;99842.88;4465782;32;35039;-75
2022/10/22 11:36:21;;;;;;;18.23;10.45;;;;;;;17.41;50.19;99835.25;4443572;32;35600;-78
2022/10/22 11:38:50;;;;;;;13.95;9.13;;;;;;;17.00;52.33;99835.69;4436456;32;32363;-77
2022/10/22 11:41:23;;;;;;;19.48;10.55;;;;;;;17.07;51.55;99834.53;4437122;32;33605;-75
2022/10/22 11:44:11;;;;;;;16.87;10.38;;;;;;;16.66;52.55;99835.69;4452380;32;35612;-76
2022/10/22 11:46:45;;;;;;;15.80;9.68;;;;;;;17.17;51.51;99831.66;4439387;32;34036;-74
2022/10/22 11:49:12;;;;;;;16.17;9.47;;;;;;;16.75;51.51;99833.97;4453275;32;33650;-75
2022/10/22 11:51:42;;;;;;;14.25;9.45;;;;;;;16.89;51.57;99828.66;4453062;32;34440;-75